sensor_id;sensor_type;location;lat;lon;timestamp;temperature;humidity
77100;SHT31;66602;48.922;2.414;2023-03-31T00:02:17;11.93;84.34
77100;SHT31;66602;48.922;2.414;2023-03-31T00:04:46;11.89;84.34
77100;SHT31;66602;48.922;2.414;2023-03-31T00:07:17;11.88;84.73
77100;SHT31;66602;48.922;2.414;2023-03-31T00:09:46;11.81;85.25
77100;SHT31;66602;48.922;2.414;2023-03-31T00:12:13;11.79;84.99
77100;SHT31;66602;48.922;2.414;2023-03-31T00:14:40;11.79;85.16
77100;SHT31;66602;48.922;2.414;2023-03-31T00:17:06;11.74;85.87
77100;SHT31;66602;48.922;2.414;2023-03-31T00:19:32;11.74;85.90
77100;SHT31;66602;48.922;2.414;2023-03-31T00:21:58;11.60;87.51
77100;SHT31;66602;48.922;2.414;2023-03-31T00:24:28;11.58;86.99
77100;SHT31;66602;48.922;2.414;2023-03-31T00:26:58;11.47;87.94
77100;SHT31;66602;48.922;2.414;2023-03-31T00:29:24;11.37;88.22
77100;SHT31;66602;48.922;2.414;2023-03-31T00:31:50;11.48;87.18
77100;SHT31;66602;48.922;2.414;2023-03-31T00:34:15;11.41;87.29
77100;SHT31;66602;48.922;2.414;2023-03-31T00:36:40;11.40;87.45
77100;SHT31;66602;48.922;2.414;2023-03-31T00:39:14;11.51;86.61
77100;SHT31;66602;48.922;2.414;2023-03-31T00:41:40;11.48;86.29
77100;SHT31;66602;48.922;2.414;2023-03-31T00:44:15;11.60;85.17
77100;SHT31;66602;48.922;2.414;2023-03-31T00:47:12;11.58;85.10
77100;SHT31;66602;48.922;2.414;2023-03-31T00:49:41;11.65;84.57
77100;SHT31;66602;48.922;2.414;2023-03-31T00:52:31;11.84;83.26
77100;SHT31;66602;48.922;2.414;2023-03-31T00:55:13;11.86;82.94
77100;SHT31;66602;48.922;2.414;2023-03-31T00:57:42;11.85;82.40
77100;SHT31;66602;48.922;2.414;2023-03-31T01:00:13;11.85;83.09
77100;SHT31;66602;48.922;2.414;2023-03-31T01:02:41;11.82;82.99
77100;SHT31;66602;48.922;2.414;2023-03-31T01:05:17;11.77;83.36
77100;SHT31;66602;48.922;2.414;2023-03-31T01:07:47;11.81;82.74
77100;SHT31;66602;48.922;2.414;2023-03-31T01:10:15;11.84;82.48
77100;SHT31;66602;48.922;2.414;2023-03-31T01:12:44;11.81;81.91
77100;SHT31;66602;48.922;2.414;2023-03-31T01:15:10;11.79;81.85
77100;SHT31;66602;48.922;2.414;2023-03-31T01:17:36;11.68;82.56
77100;SHT31;66602;48.922;2.414;2023-03-31T01:20:25;11.64;82.83
77100;SHT31;66602;48.922;2.414;2023-03-31T01:28:46;11.88;80.96
77100;SHT31;66602;48.922;2.414;2023-03-31T01:31:58;11.88;81.33
77100;SHT31;66602;48.922;2.414;2023-03-31T01:37:32;11.96;81.78
77100;SHT31;66602;48.922;2.414;2023-03-31T01:48:02;11.93;82.01
77100;SHT31;66602;48.922;2.414;2023-03-31T01:53:22;11.70;82.83
77100;SHT31;66602;48.922;2.414;2023-03-31T01:58:55;11.61;83.75
77100;SHT31;66602;48.922;2.414;2023-03-31T02:04:15;11.45;84.75
77100;SHT31;66602;48.922;2.414;2023-03-31T02:06:45;11.60;84.56
77100;SHT31;66602;48.922;2.414;2023-03-31T02:09:20;11.65;84.30
77100;SHT31;66602;48.922;2.414;2023-03-31T02:11:48;11.71;84.20
77100;SHT31;66602;48.922;2.414;2023-03-31T02:14:20;11.84;83.58
77100;SHT31;66602;48.922;2.414;2023-03-31T02:16:49;11.89;83.50
77100;SHT31;66602;48.922;2.414;2023-03-31T02:19:18;11.92;83.42
77100;SHT31;66602;48.922;2.414;2023-03-31T02:21:48;12.01;82.84
77100;SHT31;66602;48.922;2.414;2023-03-31T02:24:16;12.08;82.46
77100;SHT31;66602;48.922;2.414;2023-03-31T02:26:54;12.09;82.56
77100;SHT31;66602;48.922;2.414;2023-03-31T02:29:21;12.05;83.01
77100;SHT31;66602;48.922;2.414;2023-03-31T02:31:55;12.02;82.96
77100;SHT31;66602;48.922;2.414;2023-03-31T02:34:22;12.09;82.44
77100;SHT31;66602;48.922;2.414;2023-03-31T02:36:48;12.15;82.30
77100;SHT31;66602;48.922;2.414;2023-03-31T02:39:22;12.19;81.72
77100;SHT31;66602;48.922;2.414;2023-03-31T02:41:48;12.28;81.46
77100;SHT31;66602;48.922;2.414;2023-03-31T02:44:14;12.25;81.65
77100;SHT31;66602;48.922;2.414;2023-03-31T02:46:41;12.28;81.30
77100;SHT31;66602;48.922;2.414;2023-03-31T02:49:08;12.30;81.15
77100;SHT31;66602;48.922;2.414;2023-03-31T02:51:47;12.30;80.63
77100;SHT31;66602;48.922;2.414;2023-03-31T02:57:26;12.33;80.54
77100;SHT31;66602;48.922;2.414;2023-03-31T03:02:51;12.15;81.50
77100;SHT31;66602;48.922;2.414;2023-03-31T03:05:31;12.16;81.27
77100;SHT31;66602;48.922;2.414;2023-03-31T03:11:00;12.02;81.71
77100;SHT31;66602;48.922;2.414;2023-03-31T03:13:51;12.02;81.87
77100;SHT31;66602;48.922;2.414;2023-03-31T03:16:30;12.02;81.74
77100;SHT31;66602;48.922;2.414;2023-03-31T03:19:04;11.96;82.02
77100;SHT31;66602;48.922;2.414;2023-03-31T03:21:30;12.02;81.91
77100;SHT31;66602;48.922;2.414;2023-03-31T03:23:56;11.89;81.87
77100;SHT31;66602;48.922;2.414;2023-03-31T03:26:22;12.06;81.48
77100;SHT31;66602;48.922;2.414;2023-03-31T03:28:51;12.23;80.55
77100;SHT31;66602;48.922;2.414;2023-03-31T03:31:17;12.25;80.13
77100;SHT31;66602;48.922;2.414;2023-03-31T03:33:43;12.30;80.03
77100;SHT31;66602;48.922;2.414;2023-03-31T03:36:09;12.18;80.52
77100;SHT31;66602;48.922;2.414;2023-03-31T03:38:35;12.11;80.81
77100;SHT31;66602;48.922;2.414;2023-03-31T03:41:01;12.11;80.48
77100;SHT31;66602;48.922;2.414;2023-03-31T03:43:26;12.02;80.56
77100;SHT31;66602;48.922;2.414;2023-03-31T03:45:52;11.98;80.36
77100;SHT31;66602;48.922;2.414;2023-03-31T03:48:18;12.08;80.12
77100;SHT31;66602;48.922;2.414;2023-03-31T03:50:44;12.05;80.38
77100;SHT31;66602;48.922;2.414;2023-03-31T03:53:11;12.15;79.71
77100;SHT31;66602;48.922;2.414;2023-03-31T03:55:36;12.18;79.69
77100;SHT31;66602;48.922;2.414;2023-03-31T03:58:02;12.15;79.89
77100;SHT31;66602;48.922;2.414;2023-03-31T04:00:27;12.13;80.03
77100;SHT31;66602;48.922;2.414;2023-03-31T04:02:53;12.22;79.82
77100;SHT31;66602;48.922;2.414;2023-03-31T04:05:18;12.28;79.40
77100;SHT31;66602;48.922;2.414;2023-03-31T04:07:44;12.30;79.63
77100;SHT31;66602;48.922;2.414;2023-03-31T04:10:09;12.36;79.08
77100;SHT31;66602;48.922;2.414;2023-03-31T04:12:35;12.37;79.02
77100;SHT31;66602;48.922;2.414;2023-03-31T04:15:00;12.37;79.31
77100;SHT31;66602;48.922;2.414;2023-03-31T04:17:26;12.39;79.10
77100;SHT31;66602;48.922;2.414;2023-03-31T04:20:04;12.36;79.27
77100;SHT31;66602;48.922;2.414;2023-03-31T04:22:32;12.36;79.10
77100;SHT31;66602;48.922;2.414;2023-03-31T04:25:05;12.40;79.28
77100;SHT31;66602;48.922;2.414;2023-03-31T04:27:39;12.47;78.50
77100;SHT31;66602;48.922;2.414;2023-03-31T04:30:12;12.47;78.39
77100;SHT31;66602;48.922;2.414;2023-03-31T04:32:50;12.47;78.28
77100;SHT31;66602;48.922;2.414;2023-03-31T04:35:16;12.47;78.19
77100;SHT31;66602;48.922;2.414;2023-03-31T04:37:43;12.50;78.12
77100;SHT31;66602;48.922;2.414;2023-03-31T04:40:09;12.43;78.58
77100;SHT31;66602;48.922;2.414;2023-03-31T04:42:38;12.30;79.01
77100;SHT31;66602;48.922;2.414;2023-03-31T04:45:04;12.19;79.50
77100;SHT31;66602;48.922;2.414;2023-03-31T04:47:30;12.09;79.74
77100;SHT31;66602;48.922;2.414;2023-03-31T04:49:56;12.21;78.38
77100;SHT31;66602;48.922;2.414;2023-03-31T04:52:22;12.11;80.08
77100;SHT31;66602;48.922;2.414;2023-03-31T04:54:47;11.96;80.05
77100;SHT31;66602;48.922;2.414;2023-03-31T04:57:12;11.93;79.57
77100;SHT31;66602;48.922;2.414;2023-03-31T04:59:38;12.21;78.64
77100;SHT31;66602;48.922;2.414;2023-03-31T05:02:04;12.13;78.15
77100;SHT31;66602;48.922;2.414;2023-03-31T05:04:29;12.23;77.46
77100;SHT31;66602;48.922;2.414;2023-03-31T05:06:55;12.16;77.35
77100;SHT31;66602;48.922;2.414;2023-03-31T05:09:20;12.23;77.17
77100;SHT31;66602;48.922;2.414;2023-03-31T05:11:46;12.23;76.89
77100;SHT31;66602;48.922;2.414;2023-03-31T05:14:11;12.23;76.92
77100;SHT31;66602;48.922;2.414;2023-03-31T05:16:37;12.36;75.97
77100;SHT31;66602;48.922;2.414;2023-03-31T05:19:02;12.43;75.33
77100;SHT31;66602;48.922;2.414;2023-03-31T05:21:29;12.32;75.80
77100;SHT31;66602;48.922;2.414;2023-03-31T05:23:56;12.39;75.06
77100;SHT31;66602;48.922;2.414;2023-03-31T05:26:22;12.29;75.00
77100;SHT31;66602;48.922;2.414;2023-03-31T05:28:50;12.19;74.53
77100;SHT31;66602;48.922;2.414;2023-03-31T05:31:16;12.39;73.25
77100;SHT31;66602;48.922;2.414;2023-03-31T05:33:42;12.50;72.72
77100;SHT31;66602;48.922;2.414;2023-03-31T05:36:13;12.52;72.94
77100;SHT31;66602;48.922;2.414;2023-03-31T05:38:39;12.49;72.85
77100;SHT31;66602;48.922;2.414;2023-03-31T05:41:06;12.50;73.19
77100;SHT31;66602;48.922;2.414;2023-03-31T05:43:33;12.53;72.63
77100;SHT31;66602;48.922;2.414;2023-03-31T05:45:59;12.54;72.00
77100;SHT31;66602;48.922;2.414;2023-03-31T05:48:25;12.59;72.06
77100;SHT31;66602;48.922;2.414;2023-03-31T05:50:50;12.56;72.13
77100;SHT31;66602;48.922;2.414;2023-03-31T05:53:16;12.54;72.16
77100;SHT31;66602;48.922;2.414;2023-03-31T05:55:41;12.52;71.98
77100;SHT31;66602;48.922;2.414;2023-03-31T05:58:07;12.53;71.76
77100;SHT31;66602;48.922;2.414;2023-03-31T06:00:34;12.50;72.19
77100;SHT31;66602;48.922;2.414;2023-03-31T06:03:00;12.53;71.92
77100;SHT31;66602;48.922;2.414;2023-03-31T06:05:25;12.57;71.42
77100;SHT31;66602;48.922;2.414;2023-03-31T06:07:52;12.57;71.80
77100;SHT31;66602;48.922;2.414;2023-03-31T06:10:18;12.52;72.09
77100;SHT31;66602;48.922;2.414;2023-03-31T06:12:43;12.53;72.05
77100;SHT31;66602;48.922;2.414;2023-03-31T06:15:09;12.47;72.59
77100;SHT31;66602;48.922;2.414;2023-03-31T06:17:35;12.47;72.26
77100;SHT31;66602;48.922;2.414;2023-03-31T06:20:00;12.59;71.85
77100;SHT31;66602;48.922;2.414;2023-03-31T06:22:26;12.68;71.19
77100;SHT31;66602;48.922;2.414;2023-03-31T06:24:52;12.67;70.95
77100;SHT31;66602;48.922;2.414;2023-03-31T06:27:17;12.67;71.14
77100;SHT31;66602;48.922;2.414;2023-03-31T06:29:42;12.68;70.98
77100;SHT31;66602;48.922;2.414;2023-03-31T06:32:08;12.77;70.43
77100;SHT31;66602;48.922;2.414;2023-03-31T06:34:33;12.83;70.55
77100;SHT31;66602;48.922;2.414;2023-03-31T06:36:59;12.92;70.26
77100;SHT31;66602;48.922;2.414;2023-03-31T06:39:25;12.97;69.63
77100;SHT31;66602;48.922;2.414;2023-03-31T06:41:50;12.98;69.63
77100;SHT31;66602;48.922;2.414;2023-03-31T06:44:16;13.10;69.12
77100;SHT31;66602;48.922;2.414;2023-03-31T06:46:43;13.08;68.89
77100;SHT31;66602;48.922;2.414;2023-03-31T06:49:09;13.11;68.75
77100;SHT31;66602;48.922;2.414;2023-03-31T06:51:34;13.08;68.60
77100;SHT31;66602;48.922;2.414;2023-03-31T06:53:59;13.15;68.73
77100;SHT31;66602;48.922;2.414;2023-03-31T06:56:25;13.11;68.76
77100;SHT31;66602;48.922;2.414;2023-03-31T06:58:51;13.15;68.68
77100;SHT31;66602;48.922;2.414;2023-03-31T07:01:17;13.19;68.25
77100;SHT31;66602;48.922;2.414;2023-03-31T07:03:42;13.15;68.78
77100;SHT31;66602;48.922;2.414;2023-03-31T07:06:08;13.10;68.69
77100;SHT31;66602;48.922;2.414;2023-03-31T07:08:33;13.08;68.50
77100;SHT31;66602;48.922;2.414;2023-03-31T07:11:00;13.05;68.56
77100;SHT31;66602;48.922;2.414;2023-03-31T07:13:26;13.11;68.55
77100;SHT31;66602;48.922;2.414;2023-03-31T07:15:52;13.12;68.01
77100;SHT31;66602;48.922;2.414;2023-03-31T07:18:18;13.19;68.19
77100;SHT31;66602;48.922;2.414;2023-03-31T07:20:47;13.21;68.17
77100;SHT31;66602;48.922;2.414;2023-03-31T07:23:12;13.21;67.68
77100;SHT31;66602;48.922;2.414;2023-03-31T07:25:38;13.22;67.60
77100;SHT31;66602;48.922;2.414;2023-03-31T07:28:04;13.28;67.77
77100;SHT31;66602;48.922;2.414;2023-03-31T07:30:31;13.31;67.26
77100;SHT31;66602;48.922;2.414;2023-03-31T07:32:56;13.42;67.36
77100;SHT31;66602;48.922;2.414;2023-03-31T07:35:22;13.36;67.06
77100;SHT31;66602;48.922;2.414;2023-03-31T07:37:49;13.36;67.53
77100;SHT31;66602;48.922;2.414;2023-03-31T07:40:24;13.46;67.17
77100;SHT31;66602;48.922;2.414;2023-03-31T07:42:50;13.53;66.68
77100;SHT31;66602;48.922;2.414;2023-03-31T07:45:18;13.49;66.89
77100;SHT31;66602;48.922;2.414;2023-03-31T07:47:44;13.65;66.71
77100;SHT31;66602;48.922;2.414;2023-03-31T07:50:11;13.76;66.41
77100;SHT31;66602;48.922;2.414;2023-03-31T07:52:37;13.56;66.48
77100;SHT31;66602;48.922;2.414;2023-03-31T07:55:03;13.73;66.11
77100;SHT31;66602;48.922;2.414;2023-03-31T07:57:29;13.80;65.74
77100;SHT31;66602;48.922;2.414;2023-03-31T07:59:55;13.80;65.82
77100;SHT31;66602;48.922;2.414;2023-03-31T08:02:20;13.86;65.86
77100;SHT31;66602;48.922;2.414;2023-03-31T08:04:46;13.99;65.21
77100;SHT31;66602;48.922;2.414;2023-03-31T08:07:12;13.96;65.82
77100;SHT31;66602;48.922;2.414;2023-03-31T08:09:39;13.97;65.77
77100;SHT31;66602;48.922;2.414;2023-03-31T08:12:05;14.31;64.69
77100;SHT31;66602;48.922;2.414;2023-03-31T08:14:31;14.38;64.25
77100;SHT31;66602;48.922;2.414;2023-03-31T08:16:56;14.30;64.73
77100;SHT31;66602;48.922;2.414;2023-03-31T08:19:24;14.44;63.97
77100;SHT31;66602;48.922;2.414;2023-03-31T08:21:50;15.27;61.56
77100;SHT31;66602;48.922;2.414;2023-03-31T08:24:16;14.65;63.76
77100;SHT31;66602;48.922;2.414;2023-03-31T08:26:42;14.57;64.30
77100;SHT31;66602;48.922;2.414;2023-03-31T08:29:07;15.02;63.17
77100;SHT31;66602;48.922;2.414;2023-03-31T08:31:33;15.65;61.48
77100;SHT31;66602;48.922;2.414;2023-03-31T08:33:58;15.06;62.38
77100;SHT31;66602;48.922;2.414;2023-03-31T08:36:25;14.51;64.23
77100;SHT31;66602;48.922;2.414;2023-03-31T08:38:51;14.76;63.55
77100;SHT31;66602;48.922;2.414;2023-03-31T08:43:56;15.18;61.26
77100;SHT31;66602;48.922;2.414;2023-03-31T08:46:26;15.13;62.20
77100;SHT31;66602;48.922;2.414;2023-03-31T08:48:57;15.03;62.22
77100;SHT31;66602;48.922;2.414;2023-03-31T08:51:27;15.06;62.65
77100;SHT31;66602;48.922;2.414;2023-03-31T08:54:04;14.85;62.72
77100;SHT31;66602;48.922;2.414;2023-03-31T08:56:37;15.13;61.96
77100;SHT31;66602;48.922;2.414;2023-03-31T08:59:05;15.04;61.64
77100;SHT31;66602;48.922;2.414;2023-03-31T09:01:35;14.93;62.11
77100;SHT31;66602;48.922;2.414;2023-03-31T09:06:55;14.92;61.74
77100;SHT31;66602;48.922;2.414;2023-03-31T09:09:58;15.10;61.11
77100;SHT31;66602;48.922;2.414;2023-03-31T09:15:13;14.64;61.30
77100;SHT31;66602;48.922;2.414;2023-03-31T09:17:43;14.78;61.35
77100;SHT31;66602;48.922;2.414;2023-03-31T09:20:33;14.51;60.57
77100;SHT31;66602;48.922;2.414;2023-03-31T09:23:28;14.86;59.89
77100;SHT31;66602;48.922;2.414;2023-03-31T09:25:57;14.85;59.23
77100;SHT31;66602;48.922;2.414;2023-03-31T09:28:33;14.58;59.58
77100;SHT31;66602;48.922;2.414;2023-03-31T09:31:03;14.45;60.45
77100;SHT31;66602;48.922;2.414;2023-03-31T09:33:32;14.41;60.83
77100;SHT31;66602;48.922;2.414;2023-03-31T09:36:02;14.25;62.43
77100;SHT31;66602;48.922;2.414;2023-03-31T09:38:30;13.46;69.69
77100;SHT31;66602;48.922;2.414;2023-03-31T09:40:57;12.88;72.96
77100;SHT31;66602;48.922;2.414;2023-03-31T09:43:28;12.53;74.33
77100;SHT31;66602;48.922;2.414;2023-03-31T09:45:54;12.54;72.98
77100;SHT31;66602;48.922;2.414;2023-03-31T09:48:26;12.34;75.53
77100;SHT31;66602;48.922;2.414;2023-03-31T09:51:02;12.16;76.80
77100;SHT31;66602;48.922;2.414;2023-03-31T09:56:02;12.42;75.59
77100;SHT31;66602;48.922;2.414;2023-03-31T09:58:30;12.84;73.22
77100;SHT31;66602;48.922;2.414;2023-03-31T10:01:04;13.11;72.89
77100;SHT31;66602;48.922;2.414;2023-03-31T10:03:32;13.12;71.59
77100;SHT31;66602;48.922;2.414;2023-03-31T10:06:08;13.34;69.88
77100;SHT31;66602;48.922;2.414;2023-03-31T10:08:42;13.80;64.56
77100;SHT31;66602;48.922;2.414;2023-03-31T10:11:14;13.74;66.59
77100;SHT31;66602;48.922;2.414;2023-03-31T10:16:06;14.16;64.55
77100;SHT31;66602;48.922;2.414;2023-03-31T10:18:42;14.51;63.71
77100;SHT31;66602;48.922;2.414;2023-03-31T10:23:46;15.54;60.32
77100;SHT31;66602;48.922;2.414;2023-03-31T10:26:16;15.03;60.90
77100;SHT31;66602;48.922;2.414;2023-03-31T10:28:42;15.53;58.50
77100;SHT31;66602;48.922;2.414;2023-03-31T10:31:08;15.39;58.84
77100;SHT31;66602;48.922;2.414;2023-03-31T10:33:43;15.94;57.95
77100;SHT31;66602;48.922;2.414;2023-03-31T10:38:45;15.29;57.39
77100;SHT31;66602;48.922;2.414;2023-03-31T10:41:17;15.67;57.41
77100;SHT31;66602;48.922;2.414;2023-03-31T10:44:03;15.72;56.58
77100;SHT31;66602;48.922;2.414;2023-03-31T10:46:49;16.12;55.99
77100;SHT31;66602;48.922;2.414;2023-03-31T10:49:26;15.98;56.27
77100;SHT31;66602;48.922;2.414;2023-03-31T10:51:56;16.10;54.86
77100;SHT31;66602;48.922;2.414;2023-03-31T10:54:22;16.12;54.05
77100;SHT31;66602;48.922;2.414;2023-03-31T10:56:51;15.65;54.77
77100;SHT31;66602;48.922;2.414;2023-03-31T11:02:35;16.45;52.86
77100;SHT31;66602;48.922;2.414;2023-03-31T11:05:13;15.98;54.36
77100;SHT31;66602;48.922;2.414;2023-03-31T11:23:42;16.25;54.49
77100;SHT31;66602;48.922;2.414;2023-03-31T11:35:05;17.22;51.10
77100;SHT31;66602;48.922;2.414;2023-03-31T11:40:52;18.85;47.94
77100;SHT31;66602;48.922;2.414;2023-03-31T11:46:02;18.99;46.27
77100;SHT31;66602;48.922;2.414;2023-03-31T11:51:26;16.46;53.42
77100;SHT31;66602;48.922;2.414;2023-03-31T11:53:55;16.19;53.66
77100;SHT31;66602;48.922;2.414;2023-03-31T11:56:24;15.54;55.67
77100;SHT31;66602;48.922;2.414;2023-03-31T11:58:53;15.19;56.82
77100;SHT31;66602;48.922;2.414;2023-03-31T12:04:25;16.59;52.28
77100;SHT31;66602;48.922;2.414;2023-03-31T12:06:58;16.45;51.14
77100;SHT31;66602;48.922;2.414;2023-03-31T12:09:39;16.77;49.38
77100;SHT31;66602;48.922;2.414;2023-03-31T12:12:23;16.30;51.02
77100;SHT31;66602;48.922;2.414;2023-03-31T12:14:54;16.36;50.07
77100;SHT31;66602;48.922;2.414;2023-03-31T12:17:27;16.22;50.62
77100;SHT31;66602;48.922;2.414;2023-03-31T12:20:03;16.06;50.99
77100;SHT31;66602;48.922;2.414;2023-03-31T12:22:44;16.25;51.03
77100;SHT31;66602;48.922;2.414;2023-03-31T12:25:19;16.05;52.69
77100;SHT31;66602;48.922;2.414;2023-03-31T12:27:48;15.85;54.54
77100;SHT31;66602;48.922;2.414;2023-03-31T12:30:31;15.40;58.00
77100;SHT31;66602;48.922;2.414;2023-03-31T12:33:24;14.88;59.42
77100;SHT31;66602;48.922;2.414;2023-03-31T12:38:43;15.33;57.29
77100;SHT31;66602;48.922;2.414;2023-03-31T12:41:24;15.55;53.75
77100;SHT31;66602;48.922;2.414;2023-03-31T12:51:45;16.42;48.92
77100;SHT31;66602;48.922;2.414;2023-03-31T12:59:38;16.91;45.82
77100;SHT31;66602;48.922;2.414;2023-03-31T13:02:24;16.61;47.15
77100;SHT31;66602;48.922;2.414;2023-03-31T13:04:50;16.57;47.74
77100;SHT31;66602;48.922;2.414;2023-03-31T13:09:47;16.60;48.06
77100;SHT31;66602;48.922;2.414;2023-03-31T13:12:19;16.46;47.88
77100;SHT31;66602;48.922;2.414;2023-03-31T13:14:48;16.15;50.13
77100;SHT31;66602;48.922;2.414;2023-03-31T13:20:15;16.50;49.19
77100;SHT31;66602;48.922;2.414;2023-03-31T13:22:46;16.42;49.22
77100;SHT31;66602;48.922;2.414;2023-03-31T13:27:56;17.11;47.37
77100;SHT31;66602;48.922;2.414;2023-03-31T13:33:19;18.14;44.96
77100;SHT31;66602;48.922;2.414;2023-03-31T13:35:49;17.58;45.77
77100;SHT31;66602;48.922;2.414;2023-03-31T13:38:24;17.08;47.74
77100;SHT31;66602;48.922;2.414;2023-03-31T13:49:46;15.40;54.22
77100;SHT31;66602;48.922;2.414;2023-03-31T13:52:23;15.16;55.08
77100;SHT31;66602;48.922;2.414;2023-03-31T13:55:15;14.16;64.80
77100;SHT31;66602;48.922;2.414;2023-03-31T14:04:13;13.00;70.75
77100;SHT31;66602;48.922;2.414;2023-03-31T14:06:46;12.42;71.48
77100;SHT31;66602;48.922;2.414;2023-03-31T14:09:31;12.33;73.06
77100;SHT31;66602;48.922;2.414;2023-03-31T14:12:01;12.13;76.74
77100;SHT31;66602;48.922;2.414;2023-03-31T14:14:42;12.70;72.55
77100;SHT31;66602;48.922;2.414;2023-03-31T14:17:09;13.96;70.27
77100;SHT31;66602;48.922;2.414;2023-03-31T14:19:49;14.52;66.71
77100;SHT31;66602;48.922;2.414;2023-03-31T14:30:38;16.33;59.67
77100;SHT31;66602;48.922;2.414;2023-03-31T14:33:28;16.32;58.21
77100;SHT31;66602;48.922;2.414;2023-03-31T14:38:29;16.74;55.80
77100;SHT31;66602;48.922;2.414;2023-03-31T14:40:56;16.32;58.98
77100;SHT31;66602;48.922;2.414;2023-03-31T14:43:33;15.88;59.24
77100;SHT31;66602;48.922;2.414;2023-03-31T14:46:04;15.31;61.08
77100;SHT31;66602;48.922;2.414;2023-03-31T14:48:34;14.85;63.41
77100;SHT31;66602;48.922;2.414;2023-03-31T14:51:01;14.69;64.47
77100;SHT31;66602;48.922;2.414;2023-03-31T14:53:27;14.88;63.12
77100;SHT31;66602;48.922;2.414;2023-03-31T14:56:11;14.88;61.68
77100;SHT31;66602;48.922;2.414;2023-03-31T14:58:44;14.88;63.95
77100;SHT31;66602;48.922;2.414;2023-03-31T15:01:15;14.96;62.73
77100;SHT31;66602;48.922;2.414;2023-03-31T15:03:41;14.86;62.68
77100;SHT31;66602;48.922;2.414;2023-03-31T15:06:08;15.10;61.42
77100;SHT31;66602;48.922;2.414;2023-03-31T15:08:36;15.24;61.05
77100;SHT31;66602;48.922;2.414;2023-03-31T15:11:08;15.40;60.18
77100;SHT31;66602;48.922;2.414;2023-03-31T15:13:35;15.53;61.27
77100;SHT31;66602;48.922;2.414;2023-03-31T15:16:39;15.53;60.14
77100;SHT31;66602;48.922;2.414;2023-03-31T15:19:14;16.46;57.42
77100;SHT31;66602;48.922;2.414;2023-03-31T15:21:41;17.73;53.78
77100;SHT31;66602;48.922;2.414;2023-03-31T15:24:10;17.80;52.56
77100;SHT31;66602;48.922;2.414;2023-03-31T15:26:40;17.25;54.03
77100;SHT31;66602;48.922;2.414;2023-03-31T15:31:36;16.63;56.88
77100;SHT31;66602;48.922;2.414;2023-03-31T15:34:20;17.03;55.50
77100;SHT31;66602;48.922;2.414;2023-03-31T15:36:47;17.17;53.86
77100;SHT31;66602;48.922;2.414;2023-03-31T15:39:12;16.98;54.04
77100;SHT31;66602;48.922;2.414;2023-03-31T15:41:39;16.10;55.45
77100;SHT31;66602;48.922;2.414;2023-03-31T15:44:37;16.50;54.22
77100;SHT31;66602;48.922;2.414;2023-03-31T15:47:19;16.56;54.90
77100;SHT31;66602;48.922;2.414;2023-03-31T15:49:53;16.74;53.90
77100;SHT31;66602;48.922;2.414;2023-03-31T15:52:28;16.60;53.77
77100;SHT31;66602;48.922;2.414;2023-03-31T15:54:53;16.73;53.79
77100;SHT31;66602;48.922;2.414;2023-03-31T15:57:19;15.98;54.88
77100;SHT31;66602;48.922;2.414;2023-03-31T15:59:51;15.95;54.67
77100;SHT31;66602;48.922;2.414;2023-03-31T16:02:42;16.04;55.04
77100;SHT31;66602;48.922;2.414;2023-03-31T16:05:37;15.71;55.23
77100;SHT31;66602;48.922;2.414;2023-03-31T16:08:09;16.01;55.18
77100;SHT31;66602;48.922;2.414;2023-03-31T16:10:37;15.62;55.92
77100;SHT31;66602;48.922;2.414;2023-03-31T16:13:05;14.98;57.73
77100;SHT31;66602;48.922;2.414;2023-03-31T16:15:42;14.73;57.65
77100;SHT31;66602;48.922;2.414;2023-03-31T16:18:28;14.52;58.82
77100;SHT31;66602;48.922;2.414;2023-03-31T16:20:56;15.23;56.44
77100;SHT31;66602;48.922;2.414;2023-03-31T16:23:41;15.26;56.53
77100;SHT31;66602;48.922;2.414;2023-03-31T16:26:09;15.55;55.23
77100;SHT31;66602;48.922;2.414;2023-03-31T16:28:36;15.02;56.88
77100;SHT31;66602;48.922;2.414;2023-03-31T16:31:03;14.68;57.85
77100;SHT31;66602;48.922;2.414;2023-03-31T16:33:30;14.52;58.91
77100;SHT31;66602;48.922;2.414;2023-03-31T16:36:15;14.40;58.95
77100;SHT31;66602;48.922;2.414;2023-03-31T16:38:41;14.30;59.82
77100;SHT31;66602;48.922;2.414;2023-03-31T16:41:07;14.25;60.81
77100;SHT31;66602;48.922;2.414;2023-03-31T16:43:32;13.91;62.59
77100;SHT31;66602;48.922;2.414;2023-03-31T16:46:00;13.62;65.05
77100;SHT31;66602;48.922;2.414;2023-03-31T16:48:28;13.39;65.81
77100;SHT31;66602;48.922;2.414;2023-03-31T16:50:56;13.32;65.91
77100;SHT31;66602;48.922;2.414;2023-03-31T16:53:27;13.15;69.68
77100;SHT31;66602;48.922;2.414;2023-03-31T16:55:54;12.64;70.74
77100;SHT31;66602;48.922;2.414;2023-03-31T16:58:20;12.50;72.63
77100;SHT31;66602;48.922;2.414;2023-03-31T17:00:48;12.44;72.38
77100;SHT31;66602;48.922;2.414;2023-03-31T17:03:15;12.65;69.55
77100;SHT31;66602;48.922;2.414;2023-03-31T17:05:46;12.90;66.94
77100;SHT31;66602;48.922;2.414;2023-03-31T17:08:14;12.85;67.58
77100;SHT31;66602;48.922;2.414;2023-03-31T17:10:40;12.88;67.38
77100;SHT31;66602;48.922;2.414;2023-03-31T17:13:07;12.97;67.49
77100;SHT31;66602;48.922;2.414;2023-03-31T17:15:33;12.91;67.69
77100;SHT31;66602;48.922;2.414;2023-03-31T17:18:00;12.97;65.96
77100;SHT31;66602;48.922;2.414;2023-03-31T17:20:28;12.98;66.72
77100;SHT31;66602;48.922;2.414;2023-03-31T17:22:53;12.94;67.04
77100;SHT31;66602;48.922;2.414;2023-03-31T17:25:20;12.97;67.04
77100;SHT31;66602;48.922;2.414;2023-03-31T17:27:45;13.10;66.33
77100;SHT31;66602;48.922;2.414;2023-03-31T17:30:12;13.11;65.77
77100;SHT31;66602;48.922;2.414;2023-03-31T17:32:38;13.04;66.82
77100;SHT31;66602;48.922;2.414;2023-03-31T17:35:03;13.01;66.83
77100;SHT31;66602;48.922;2.414;2023-03-31T17:37:31;13.00;66.29
77100;SHT31;66602;48.922;2.414;2023-03-31T17:39:57;12.98;66.80
77100;SHT31;66602;48.922;2.414;2023-03-31T17:42:23;13.02;66.43
77100;SHT31;66602;48.922;2.414;2023-03-31T17:44:49;13.10;66.10
77100;SHT31;66602;48.922;2.414;2023-03-31T17:47:16;13.15;65.96
77100;SHT31;66602;48.922;2.414;2023-03-31T17:49:42;13.11;66.13
77100;SHT31;66602;48.922;2.414;2023-03-31T17:52:07;13.16;65.18
77100;SHT31;66602;48.922;2.414;2023-03-31T17:54:33;13.16;65.59
77100;SHT31;66602;48.922;2.414;2023-03-31T17:56:59;13.18;65.49
77100;SHT31;66602;48.922;2.414;2023-03-31T17:59:25;13.11;64.54
77100;SHT31;66602;48.922;2.414;2023-03-31T18:01:51;13.21;63.99
77100;SHT31;66602;48.922;2.414;2023-03-31T18:04:16;13.16;64.59
77100;SHT31;66602;48.922;2.414;2023-03-31T18:06:42;13.23;64.21
77100;SHT31;66602;48.922;2.414;2023-03-31T18:09:09;13.19;62.83
77100;SHT31;66602;48.922;2.414;2023-03-31T18:11:36;13.19;62.05
77100;SHT31;66602;48.922;2.414;2023-03-31T18:14:02;13.15;62.43
77100;SHT31;66602;48.922;2.414;2023-03-31T18:16:28;13.18;60.26